上海/浦東 の空港の天気 - METARとTAF

上海浦東国際空港 ( ZSPD / PVG ) - 中国 上海市
飛行場実況気象(Metar)
観測時間04/21 23:00 CST (04/21 15:00 UTC)
風向・風速東南東 6m/s
視程5000m
天気現象弱い雨 もや
全天の8割程度の雲 雲底高度 90m
気温18℃
湿度94%
気圧1011hPa
METARZSPD 211500Z 11006MPS 5000 -RA BR BKN003 18/17 Q1011 NOSIG
過去の天気等 Google飛行場航空写真 Wunderground天気予報

過去48時間のMETAR

飛行場予報(TAF)
発表時間: 4/21 19:29 CST (4/21 11:29 UTC)
予報対象時間: 21日20時 CST ~ 22日20時 CST
風向・風速東 4m/s
視程3500m
天気現象もや
全天の8割程度の雲 雲底高度 60m
21日20時 CST ~ 22日2時 CST に一時的に
全天の8割程度の雲 雲底高度 30m
22日8時 CST ~ 22日10時 CST に徐々に
全天の8割程度の雲 雲底高度 150m
22日12時 CST ~ 22日14時 CST に徐々に
全天の8割程度の雲 雲底高度 300m
TAF AMD ZSPD 211129Z 2112/2212 10004MPS 3500 BR BKN002 TX23/2206Z TN17/2121Z
TEMPO 2112/2118 BKN001
BECMG 2200/2202 BKN005
BECMG 2204/2206 BKN010